sensor_id;sensor_type;location;lat;lon;timestamp;pressure;altitude;pressure_sealevel;temperature;humidity
26657;BME280;14279;50.010;8.260;2023-03-19T00:00:07;100142.84;;;13.30;62.41
26657;BME280;14279;50.010;8.260;2023-03-19T00:02:34;100128.75;;;13.33;62.31
26657;BME280;14279;50.010;8.260;2023-03-19T00:05:00;100142.28;;;13.25;62.53
26657;BME280;14279;50.010;8.260;2023-03-19T00:07:25;100138.09;;;13.22;62.88
26657;BME280;14279;50.010;8.260;2023-03-19T00:09:50;100144.81;;;13.27;62.55
26657;BME280;14279;50.010;8.260;2023-03-19T00:12:16;100142.97;;;13.43;62.00
26657;BME280;14279;50.010;8.260;2023-03-19T00:14:41;100138.47;;;13.45;61.82
26657;BME280;14279;50.010;8.260;2023-03-19T00:17:07;100136.50;;;13.20;62.33
26657;BME280;14279;50.010;8.260;2023-03-19T00:19:32;100141.44;;;12.96;63.22
26657;BME280;14279;50.010;8.260;2023-03-19T00:21:58;100137.72;;;13.00;63.08
26657;BME280;14279;50.010;8.260;2023-03-19T00:24:23;100144.16;;;13.08;62.90
26657;BME280;14279;50.010;8.260;2023-03-19T00:26:49;100141.16;;;13.15;63.04
26657;BME280;14279;50.010;8.260;2023-03-19T00:29:15;100142.00;;;13.15;63.16
26657;BME280;14279;50.010;8.260;2023-03-19T00:31:41;100142.50;;;13.22;62.81
26657;BME280;14279;50.010;8.260;2023-03-19T00:34:13;100139.13;;;13.20;63.05
26657;BME280;14279;50.010;8.260;2023-03-19T00:36:42;100144.06;;;13.10;63.15
26657;BME280;14279;50.010;8.260;2023-03-19T00:39:07;100149.66;;;13.04;63.16
26657;BME280;14279;50.010;8.260;2023-03-19T00:41:33;100146.28;;;13.02;63.58
26657;BME280;14279;50.010;8.260;2023-03-19T00:43:58;100143.50;;;13.05;63.54
26657;BME280;14279;50.010;8.260;2023-03-19T00:46:24;100146.28;;;13.02;63.32
26657;BME280;14279;50.010;8.260;2023-03-19T00:48:50;100155.34;;;13.11;62.97
26657;BME280;14279;50.010;8.260;2023-03-19T00:51:18;100147.69;;;12.93;63.53
26657;BME280;14279;50.010;8.260;2023-03-19T00:53:43;100153.28;;;13.01;63.80
26657;BME280;14279;50.010;8.260;2023-03-19T00:56:10;100146.00;;;12.92;63.84
26657;BME280;14279;50.010;8.260;2023-03-19T00:58:36;100152.91;;;12.93;64.43
26657;BME280;14279;50.010;8.260;2023-03-19T01:01:06;100158.31;;;13.04;64.35
26657;BME280;14279;50.010;8.260;2023-03-19T01:03:31;100151.88;;;12.96;64.51
26657;BME280;14279;50.010;8.260;2023-03-19T01:05:57;100146.47;;;13.13;63.82
26657;BME280;14279;50.010;8.260;2023-03-19T01:08:22;100147.03;;;13.18;63.36
26657;BME280;14279;50.010;8.260;2023-03-19T01:10:48;100136.69;;;13.17;63.50
26657;BME280;14279;50.010;8.260;2023-03-19T01:13:13;100140.31;;;13.14;63.88
26657;BME280;14279;50.010;8.260;2023-03-19T01:15:40;100144.16;;;13.08;64.11
26657;BME280;14279;50.010;8.260;2023-03-19T01:18:06;100143.22;;;13.10;64.44
26657;BME280;14279;50.010;8.260;2023-03-19T01:20:32;100132.88;;;13.08;64.92
26657;BME280;14279;50.010;8.260;2023-03-19T01:22:57;100132.94;;;13.06;64.56
26657;BME280;14279;50.010;8.260;2023-03-19T01:25:22;100134.56;;;13.09;64.42
26657;BME280;14279;50.010;8.260;2023-03-19T01:27:49;100142.47;;;13.07;64.06
26657;BME280;14279;50.010;8.260;2023-03-19T01:30:15;100147.03;;;13.04;64.43
26657;BME280;14279;50.010;8.260;2023-03-19T01:32:40;100147.41;;;12.98;64.54
26657;BME280;14279;50.010;8.260;2023-03-19T01:35:06;100140.69;;;12.93;64.63
26657;BME280;14279;50.010;8.260;2023-03-19T01:37:31;100141.59;;;12.92;65.08
26657;BME280;14279;50.010;8.260;2023-03-19T01:39:57;100136.13;;;12.97;64.67
26657;BME280;14279;50.010;8.260;2023-03-19T01:42:22;100141.91;;;13.02;64.07
26657;BME280;14279;50.010;8.260;2023-03-19T01:44:47;100137.53;;;13.03;64.67
26657;BME280;14279;50.010;8.260;2023-03-19T01:47:17;100128.19;;;12.84;65.94
26657;BME280;14279;50.010;8.260;2023-03-19T01:49:46;100131.69;;;12.69;67.08
26657;BME280;14279;50.010;8.260;2023-03-19T01:52:15;100145.78;;;12.66;67.76
26657;BME280;14279;50.010;8.260;2023-03-19T01:54:42;100145.31;;;12.74;67.21
26657;BME280;14279;50.010;8.260;2023-03-19T01:57:10;100149.97;;;12.69;67.20
26657;BME280;14279;50.010;8.260;2023-03-19T01:59:39;100146.59;;;12.67;67.44
26657;BME280;14279;50.010;8.260;2023-03-19T02:02:21;100155.00;;;12.72;67.56
26657;BME280;14279;50.010;8.260;2023-03-19T02:04:51;100154.44;;;12.67;67.61
26657;BME280;14279;50.010;8.260;2023-03-19T02:07:18;100155.00;;;12.72;67.90
26657;BME280;14279;50.010;8.260;2023-03-19T02:09:44;100150.75;;;12.85;67.08
26657;BME280;14279;50.010;8.260;2023-03-19T02:12:11;100157.22;;;12.94;65.99
26657;BME280;14279;50.010;8.260;2023-03-19T02:14:37;100164.13;;;12.95;66.03
26657;BME280;14279;50.010;8.260;2023-03-19T02:17:02;100158.91;;;12.95;65.53
26657;BME280;14279;50.010;8.260;2023-03-19T02:22:02;100167.19;;;13.02;65.18
26657;BME280;14279;50.010;8.260;2023-03-19T02:24:34;100164.88;;;12.97;65.31
26657;BME280;14279;50.010;8.260;2023-03-19T02:27:01;100159.38;;;13.02;65.43
26657;BME280;14279;50.010;8.260;2023-03-19T02:29:27;100154.88;;;13.04;65.34
26657;BME280;14279;50.010;8.260;2023-03-19T02:31:52;100142.75;;;13.03;65.02
26657;BME280;14279;50.010;8.260;2023-03-19T02:36:58;100150.59;;;13.03;64.97
26657;BME280;14279;50.010;8.260;2023-03-19T02:39:40;100149.00;;;13.15;62.82
26657;BME280;14279;50.010;8.260;2023-03-19T02:42:09;100154.53;;;13.10;63.18
26657;BME280;14279;50.010;8.260;2023-03-19T02:44:35;100142.75;;;13.03;63.21
26657;BME280;14279;50.010;8.260;2023-03-19T02:47:01;100145.19;;;13.20;62.37
26657;BME280;14279;50.010;8.260;2023-03-19T02:49:27;100145.00;;;13.23;62.56
26657;BME280;14279;50.010;8.260;2023-03-19T02:51:52;100145.19;;;13.06;63.45
26657;BME280;14279;50.010;8.260;2023-03-19T02:54:17;100145.44;;;13.01;63.76
26657;BME280;14279;50.010;8.260;2023-03-19T02:56:43;100157.97;;;12.96;63.35
26657;BME280;14279;50.010;8.260;2023-03-19T02:59:08;100158.50;;;13.01;62.57
26657;BME280;14279;50.010;8.260;2023-03-19T03:01:33;100154.84;;;12.89;63.32
26657;BME280;14279;50.010;8.260;2023-03-19T03:03:58;100153.38;;;12.85;62.62
26657;BME280;14279;50.010;8.260;2023-03-19T03:06:23;100153.44;;;12.84;62.93
26657;BME280;14279;50.010;8.260;2023-03-19T03:08:49;100156.53;;;12.90;62.65
26657;BME280;14279;50.010;8.260;2023-03-19T03:11:14;100156.06;;;12.84;63.49
26657;BME280;14279;50.010;8.260;2023-03-19T03:13:39;100156.28;;;12.95;62.85
26657;BME280;14279;50.010;8.260;2023-03-19T03:16:05;100152.63;;;12.98;62.89
26657;BME280;14279;50.010;8.260;2023-03-19T03:18:30;100147.13;;;13.02;62.76
26657;BME280;14279;50.010;8.260;2023-03-19T03:20:56;100153.16;;;12.88;63.06
26657;BME280;14279;50.010;8.260;2023-03-19T03:23:22;100150.75;;;12.85;63.21
26657;BME280;14279;50.010;8.260;2023-03-19T03:25:48;100154.84;;;12.75;63.71
26657;BME280;14279;50.010;8.260;2023-03-19T03:28:14;100152.50;;;12.70;64.36
26657;BME280;14279;50.010;8.260;2023-03-19T03:30:39;100157.91;;;12.82;64.12
26657;BME280;14279;50.010;8.260;2023-03-19T03:33:04;100157.00;;;12.83;64.31
26657;BME280;14279;50.010;8.260;2023-03-19T03:35:29;100162.94;;;12.70;65.35
26657;BME280;14279;50.010;8.260;2023-03-19T03:37:55;100156.13;;;12.68;65.07
26657;BME280;14279;50.010;8.260;2023-03-19T03:40:20;100162.94;;;12.70;64.99
26657;BME280;14279;50.010;8.260;2023-03-19T03:42:46;100172.91;;;12.63;65.62
26657;BME280;14279;50.010;8.260;2023-03-19T03:45:11;100170.72;;;12.56;66.35
26657;BME280;14279;50.010;8.260;2023-03-19T03:47:36;100173.78;;;12.48;66.54
26657;BME280;14279;50.010;8.260;2023-03-19T03:50:02;100174.47;;;12.52;66.38
26657;BME280;14279;50.010;8.260;2023-03-19T03:52:29;100176.22;;;12.51;65.68
26657;BME280;14279;50.010;8.260;2023-03-19T03:54:56;100169.13;;;12.53;65.49
26657;BME280;14279;50.010;8.260;2023-03-19T03:57:22;100167.56;;;12.51;65.42
26657;BME280;14279;50.010;8.260;2023-03-19T03:59:48;100166.88;;;12.47;65.53
26657;BME280;14279;50.010;8.260;2023-03-19T04:02:13;100164.53;;;12.42;65.66
26657;BME280;14279;50.010;8.260;2023-03-19T04:04:38;100176.84;;;12.40;65.66
26657;BME280;14279;50.010;8.260;2023-03-19T04:07:04;100178.97;;;12.33;65.89
26657;BME280;14279;50.010;8.260;2023-03-19T04:09:29;100186.63;;;12.37;66.17
26657;BME280;14279;50.010;8.260;2023-03-19T04:11:55;100185.50;;;12.41;66.28
26657;BME280;14279;50.010;8.260;2023-03-19T04:14:20;100183.09;;;12.38;66.70
26657;BME280;14279;50.010;8.260;2023-03-19T04:16:45;100184.34;;;12.30;66.74
26657;BME280;14279;50.010;8.260;2023-03-19T04:19:11;100189.56;;;12.30;66.61
26657;BME280;14279;50.010;8.260;2023-03-19T04:21:36;100188.53;;;12.33;66.80
26657;BME280;14279;50.010;8.260;2023-03-19T04:24:01;100200.75;;;12.32;66.88
26657;BME280;14279;50.010;8.260;2023-03-19T04:26:26;100199.34;;;12.27;66.95
26657;BME280;14279;50.010;8.260;2023-03-19T04:28:52;100197.91;;;12.21;67.63
26657;BME280;14279;50.010;8.260;2023-03-19T04:31:17;100197.13;;;12.19;67.34
26657;BME280;14279;50.010;8.260;2023-03-19T04:33:42;100209.19;;;12.22;67.78
26657;BME280;14279;50.010;8.260;2023-03-19T04:36:08;100205.50;;;12.26;67.46
26657;BME280;14279;50.010;8.260;2023-03-19T04:38:34;100203.03;;;12.23;67.65
26657;BME280;14279;50.010;8.260;2023-03-19T04:40:59;100203.72;;;12.26;67.59
26657;BME280;14279;50.010;8.260;2023-03-19T04:43:25;100200.66;;;12.34;67.26
26657;BME280;14279;50.010;8.260;2023-03-19T04:45:51;100202.50;;;12.32;67.69
26657;BME280;14279;50.010;8.260;2023-03-19T04:48:16;100197.81;;;12.39;68.08
26657;BME280;14279;50.010;8.260;2023-03-19T04:50:43;100201.97;;;12.27;67.71
26657;BME280;14279;50.010;8.260;2023-03-19T04:53:09;100206.50;;;12.07;68.32
26657;BME280;14279;50.010;8.260;2023-03-19T04:55:34;100207.00;;;12.14;68.07
26657;BME280;14279;50.010;8.260;2023-03-19T04:57:59;100205.91;;;12.02;68.72
26657;BME280;14279;50.010;8.260;2023-03-19T05:00:25;100211.19;;;12.00;68.65
26657;BME280;14279;50.010;8.260;2023-03-19T05:02:50;100207.97;;;11.95;68.69
26657;BME280;14279;50.010;8.260;2023-03-19T05:05:15;100212.97;;;12.00;69.11
26657;BME280;14279;50.010;8.260;2023-03-19T05:07:41;100217.28;;;12.01;68.56
26657;BME280;14279;50.010;8.260;2023-03-19T05:10:07;100221.75;;;11.99;68.80
26657;BME280;14279;50.010;8.260;2023-03-19T05:12:33;100221.22;;;12.08;68.50
26657;BME280;14279;50.010;8.260;2023-03-19T05:14:59;100224.75;;;12.07;68.79
26657;BME280;14279;50.010;8.260;2023-03-19T05:17:24;100224.00;;;12.05;68.93
26657;BME280;14279;50.010;8.260;2023-03-19T05:19:50;100213.91;;;11.99;69.02
26657;BME280;14279;50.010;8.260;2023-03-19T05:22:17;100219.88;;;12.01;69.45
26657;BME280;14279;50.010;8.260;2023-03-19T05:24:42;100225.94;;;12.01;69.45
26657;BME280;14279;50.010;8.260;2023-03-19T05:27:08;100233.13;;;11.96;69.79
26657;BME280;14279;50.010;8.260;2023-03-19T05:29:33;100237.94;;;11.88;70.16
26657;BME280;14279;50.010;8.260;2023-03-19T05:31:58;100238.25;;;11.82;72.07
26657;BME280;14279;50.010;8.260;2023-03-19T05:34:27;100232.69;;;11.72;72.58
26657;BME280;14279;50.010;8.260;2023-03-19T05:36:52;100231.06;;;11.69;72.86
26657;BME280;14279;50.010;8.260;2023-03-19T05:39:17;100231.84;;;11.71;72.72
26657;BME280;14279;50.010;8.260;2023-03-19T05:41:43;100238.56;;;11.76;72.62
26657;BME280;14279;50.010;8.260;2023-03-19T05:44:08;100242.72;;;11.80;72.47
26657;BME280;14279;50.010;8.260;2023-03-19T05:46:34;100246.16;;;11.80;72.32
26657;BME280;14279;50.010;8.260;2023-03-19T05:49:00;100260.88;;;11.81;71.72
26657;BME280;14279;50.010;8.260;2023-03-19T05:51:28;100255.66;;;11.99;71.71
26657;BME280;14279;50.010;8.260;2023-03-19T05:53:53;100252.22;;;11.81;72.29
26657;BME280;14279;50.010;8.260;2023-03-19T05:56:19;100251.47;;;11.79;72.48
26657;BME280;14279;50.010;8.260;2023-03-19T05:58:44;100249.31;;;11.69;72.09
26657;BME280;14279;50.010;8.260;2023-03-19T06:01:09;100261.78;;;11.64;72.75
26657;BME280;14279;50.010;8.260;2023-03-19T06:03:35;100270.19;;;11.69;72.17
26657;BME280;14279;50.010;8.260;2023-03-19T06:06:00;100272.41;;;11.77;71.97
26657;BME280;14279;50.010;8.260;2023-03-19T06:08:25;100272.47;;;11.76;72.27
26657;BME280;14279;50.010;8.260;2023-03-19T06:10:51;100265.66;;;11.73;72.25
26657;BME280;14279;50.010;8.260;2023-03-19T06:13:17;100269.81;;;11.60;73.00
26657;BME280;14279;50.010;8.260;2023-03-19T06:15:42;100277.94;;;11.71;72.62
26657;BME280;14279;50.010;8.260;2023-03-19T06:18:07;100280.41;;;11.74;72.63
26657;BME280;14279;50.010;8.260;2023-03-19T06:20:33;100274.31;;;11.73;72.25
26657;BME280;14279;50.010;8.260;2023-03-19T06:22:58;100275.50;;;11.68;72.27
26657;BME280;14279;50.010;8.260;2023-03-19T06:25:23;100269.50;;;11.66;72.18
26657;BME280;14279;50.010;8.260;2023-03-19T06:27:48;100269.34;;;11.69;71.44
26657;BME280;14279;50.010;8.260;2023-03-19T06:30:14;100279.63;;;11.72;71.44
26657;BME280;14279;50.010;8.260;2023-03-19T06:32:39;100278.03;;;11.85;70.97
26657;BME280;14279;50.010;8.260;2023-03-19T06:35:05;100270.31;;;11.84;70.77
26657;BME280;14279;50.010;8.260;2023-03-19T06:37:32;100287.50;;;11.88;70.58
26657;BME280;14279;50.010;8.260;2023-03-19T06:39:58;100283.44;;;12.00;70.87
26657;BME280;14279;50.010;8.260;2023-03-19T06:42:23;100278.38;;;12.13;70.13
26657;BME280;14279;50.010;8.260;2023-03-19T06:44:48;100285.19;;;12.15;69.72
26657;BME280;14279;50.010;8.260;2023-03-19T06:47:14;100283.59;;;12.13;69.60
26657;BME280;14279;50.010;8.260;2023-03-19T06:49:40;100290.56;;;12.12;70.03
26657;BME280;14279;50.010;8.260;2023-03-19T06:52:05;100283.16;;;12.05;69.57
26657;BME280;14279;50.010;8.260;2023-03-19T06:54:31;100289.97;;;12.07;69.04
26657;BME280;14279;50.010;8.260;2023-03-19T06:56:57;100290.69;;;12.11;69.33
26657;BME280;14279;50.010;8.260;2023-03-19T06:59:23;100293.69;;;12.03;70.38
26657;BME280;14279;50.010;8.260;2023-03-19T07:01:48;100296.06;;;12.08;70.25
26657;BME280;14279;50.010;8.260;2023-03-19T07:04:13;100299.38;;;11.94;70.72
26657;BME280;14279;50.010;8.260;2023-03-19T07:06:39;100301.19;;;12.09;69.98
26657;BME280;14279;50.010;8.260;2023-03-19T07:09:04;100304.22;;;12.17;69.42
26657;BME280;14279;50.010;8.260;2023-03-19T07:11:30;100302.44;;;12.18;69.04
26657;BME280;14279;50.010;8.260;2023-03-19T07:13:55;100307.25;;;12.10;69.37
26657;BME280;14279;50.010;8.260;2023-03-19T07:16:20;100313.22;;;12.12;69.82
26657;BME280;14279;50.010;8.260;2023-03-19T07:18:46;100317.75;;;12.08;69.32
26657;BME280;14279;50.010;8.260;2023-03-19T07:21:11;100318.09;;;12.02;69.58
26657;BME280;14279;50.010;8.260;2023-03-19T07:23:36;100322.31;;;12.05;69.60
26657;BME280;14279;50.010;8.260;2023-03-19T07:26:01;100320.13;;;12.13;69.20
26657;BME280;14279;50.010;8.260;2023-03-19T07:28:27;100320.31;;;12.26;68.40
26657;BME280;14279;50.010;8.260;2023-03-19T07:30:53;100322.69;;;12.30;68.31
26657;BME280;14279;50.010;8.260;2023-03-19T07:33:19;100320.31;;;12.26;68.08
26657;BME280;14279;50.010;8.260;2023-03-19T07:35:45;100334.19;;;12.26;68.08
26657;BME280;14279;50.010;8.260;2023-03-19T07:38:10;100333.31;;;12.43;67.44
26657;BME280;14279;50.010;8.260;2023-03-19T07:40:36;100329.66;;;12.46;67.21
26657;BME280;14279;50.010;8.260;2023-03-19T07:43:01;100325.97;;;12.50;66.69
26657;BME280;14279;50.010;8.260;2023-03-19T07:45:26;100334.41;;;12.55;66.76
26657;BME280;14279;50.010;8.260;2023-03-19T07:47:52;100330.59;;;12.45;67.10
26657;BME280;14279;50.010;8.260;2023-03-19T07:50:17;100334.66;;;12.35;67.53
26657;BME280;14279;50.010;8.260;2023-03-19T07:52:47;100330.53;;;12.46;67.52
26657;BME280;14279;50.010;8.260;2023-03-19T07:55:13;100331.50;;;12.44;67.37
26657;BME280;14279;50.010;8.260;2023-03-19T07:57:39;100338.78;;;12.39;67.69
26657;BME280;14279;50.010;8.260;2023-03-19T08:00:05;100339.69;;;12.54;67.54
26657;BME280;14279;50.010;8.260;2023-03-19T08:02:30;100343.75;;;12.75;66.61
26657;BME280;14279;50.010;8.260;2023-03-19T08:04:56;100341.88;;;12.77;66.81
26657;BME280;14279;50.010;8.260;2023-03-19T08:07:21;100342.94;;;12.89;66.04
26657;BME280;14279;50.010;8.260;2023-03-19T08:09:46;100344.28;;;12.97;65.90
26657;BME280;14279;50.010;8.260;2023-03-19T08:12:12;100347.63;;;12.84;65.64
26657;BME280;14279;50.010;8.260;2023-03-19T08:14:38;100336.03;;;12.88;65.89
26657;BME280;14279;50.010;8.260;2023-03-19T08:17:03;100341.94;;;13.08;65.00
26657;BME280;14279;50.010;8.260;2023-03-19T08:19:29;100346.78;;;13.14;64.61
26657;BME280;14279;50.010;8.260;2023-03-19T08:21:54;100354.00;;;13.41;63.77
26657;BME280;14279;50.010;8.260;2023-03-19T08:24:20;100348.59;;;13.44;63.33
26657;BME280;14279;50.010;8.260;2023-03-19T08:26:45;100349.28;;;13.48;63.14
26657;BME280;14279;50.010;8.260;2023-03-19T08:29:11;100353.88;;;13.73;61.60
26657;BME280;14279;50.010;8.260;2023-03-19T08:31:36;100350.97;;;13.63;61.88
26657;BME280;14279;50.010;8.260;2023-03-19T08:34:01;100343.66;;;13.54;61.91
26657;BME280;14279;50.010;8.260;2023-03-19T08:36:29;100351.38;;;13.86;60.82
26657;BME280;14279;50.010;8.260;2023-03-19T08:38:55;100346.22;;;14.13;59.80
26657;BME280;14279;50.010;8.260;2023-03-19T08:41:21;100346.22;;;13.85;60.41
26657;BME280;14279;50.010;8.260;2023-03-19T08:43:47;100345.09;;;13.89;60.13
26657;BME280;14279;50.010;8.260;2023-03-19T08:46:12;100357.84;;;14.24;59.56
26657;BME280;14279;50.010;8.260;2023-03-19T08:48:37;100350.38;;;14.03;59.96
26657;BME280;14279;50.010;8.260;2023-03-19T08:51:03;100348.00;;;13.84;60.79
26657;BME280;14279;50.010;8.260;2023-03-19T08:53:30;100346.13;;;14.01;60.72
26657;BME280;14279;50.010;8.260;2023-03-19T08:55:58;100341.25;;;14.23;59.92
26657;BME280;14279;50.010;8.260;2023-03-19T08:58:34;100343.34;;;13.89;60.55
26657;BME280;14279;50.010;8.260;2023-03-19T09:01:12;100346.59;;;13.93;60.58
26657;BME280;14279;50.010;8.260;2023-03-19T09:03:56;100355.22;;;14.24;59.30
26657;BME280;14279;50.010;8.260;2023-03-19T09:06:51;100365.47;;;14.41;59.23
26657;BME280;14279;50.010;8.260;2023-03-19T09:09:18;100350.44;;;14.31;59.33
26657;BME280;14279;50.010;8.260;2023-03-19T09:11:44;100347.44;;;14.22;59.89
26657;BME280;14279;50.010;8.260;2023-03-19T09:14:13;100351.63;;;14.39;59.27
26657;BME280;14279;50.010;8.260;2023-03-19T09:16:43;100361.47;;;14.36;58.87
26657;BME280;14279;50.010;8.260;2023-03-19T09:19:09;100360.13;;;14.57;58.63
26657;BME280;14279;50.010;8.260;2023-03-19T09:21:35;100358.25;;;14.60;58.61
26657;BME280;14279;50.010;8.260;2023-03-19T09:24:06;100364.41;;;14.58;58.92
26657;BME280;14279;50.010;8.260;2023-03-19T09:26:32;100364.91;;;14.93;57.82
26657;BME280;14279;50.010;8.260;2023-03-19T09:28:57;100369.16;;;14.66;58.99
26657;BME280;14279;50.010;8.260;2023-03-19T09:31:23;100377.44;;;15.02;57.96
26657;BME280;14279;50.010;8.260;2023-03-19T09:34:19;100366.50;;;14.95;57.69
26657;BME280;14279;50.010;8.260;2023-03-19T09:36:44;100367.81;;;15.02;57.92
26657;BME280;14279;50.010;8.260;2023-03-19T09:39:10;100377.94;;;14.94;57.79
26657;BME280;14279;50.010;8.260;2023-03-19T09:41:57;100378.44;;;14.72;58.78
26657;BME280;14279;50.010;8.260;2023-03-19T09:44:39;100375.16;;;14.83;58.32
26657;BME280;14279;50.010;8.260;2023-03-19T09:49:55;100375.50;;;14.91;57.31
26657;BME280;14279;50.010;8.260;2023-03-19T09:55:24;100379.75;;;14.79;57.59
26657;BME280;14279;50.010;8.260;2023-03-19T09:57:54;100371.88;;;14.79;58.00
26657;BME280;14279;50.010;8.260;2023-03-19T10:00:52;100379.13;;;15.03;57.42
26657;BME280;14279;50.010;8.260;2023-03-19T10:10:43;100370.44;;;14.88;57.87
26657;BME280;14279;50.010;8.260;2023-03-19T10:16:21;100366.41;;;15.24;57.23
26657;BME280;14279;50.010;8.260;2023-03-19T10:18:50;100366.69;;;15.73;55.97
26657;BME280;14279;50.010;8.260;2023-03-19T10:21:42;100370.16;;;16.12;54.58
26657;BME280;14279;50.010;8.260;2023-03-19T10:24:21;100367.66;;;15.98;54.75
26657;BME280;14279;50.010;8.260;2023-03-19T10:26:48;100371.66;;;16.03;54.91
26657;BME280;14279;50.010;8.260;2023-03-19T10:29:20;100373.88;;;15.56;56.57
26657;BME280;14279;50.010;8.260;2023-03-19T10:32:07;100377.56;;;15.54;56.65
26657;BME280;14279;50.010;8.260;2023-03-19T10:34:41;100379.28;;;15.68;56.44
26657;BME280;14279;50.010;8.260;2023-03-19T10:37:25;100377.28;;;15.71;56.98
26657;BME280;14279;50.010;8.260;2023-03-19T10:39:54;100373.06;;;15.56;57.88
26657;BME280;14279;50.010;8.260;2023-03-19T10:45:42;100382.44;;;15.73;57.04
26657;BME280;14279;50.010;8.260;2023-03-19T10:48:13;100384.84;;;15.76;56.33
26657;BME280;14279;50.010;8.260;2023-03-19T10:51:05;100386.41;;;15.78;56.21
26657;BME280;14279;50.010;8.260;2023-03-19T11:00:25;100391.38;;;16.22;55.50
26657;BME280;14279;50.010;8.260;2023-03-19T11:02:59;100387.06;;;16.08;55.61
26657;BME280;14279;50.010;8.260;2023-03-19T11:05:32;100393.59;;;16.02;56.11
26657;BME280;14279;50.010;8.260;2023-03-19T11:08:05;100387.59;;;15.87;56.96
26657;BME280;14279;50.010;8.260;2023-03-19T11:10:33;100395.16;;;15.92;57.94
26657;BME280;14279;50.010;8.260;2023-03-19T11:13:23;100387.06;;;15.95;57.91
26657;BME280;14279;50.010;8.260;2023-03-19T11:15:51;100396.53;;;15.98;57.39
26657;BME280;14279;50.010;8.260;2023-03-19T11:18:35;100400.63;;;16.02;58.68
26657;BME280;14279;50.010;8.260;2023-03-19T11:21:21;100389.47;;;15.85;58.93
26657;BME280;14279;50.010;8.260;2023-03-19T11:23:51;100392.38;;;15.68;60.22
26657;BME280;14279;50.010;8.260;2023-03-19T11:26:20;100393.88;;;15.31;63.15
26657;BME280;14279;50.010;8.260;2023-03-19T11:28:52;100389.41;;;15.06;64.23
26657;BME280;14279;50.010;8.260;2023-03-19T11:31:24;100391.81;;;14.82;64.98
26657;BME280;14279;50.010;8.260;2023-03-19T11:34:07;100395.59;;;14.34;67.24
26657;BME280;14279;50.010;8.260;2023-03-19T11:37:05;100386.81;;;14.50;67.07
26657;BME280;14279;50.010;8.260;2023-03-19T11:42:33;100388.75;;;15.30;64.74
26657;BME280;14279;50.010;8.260;2023-03-19T11:45:11;100393.13;;;15.16;63.89
26657;BME280;14279;50.010;8.260;2023-03-19T11:47:58;100386.56;;;15.37;63.81
26657;BME280;14279;50.010;8.260;2023-03-19T11:50:38;100381.09;;;15.40;61.71
26657;BME280;14279;50.010;8.260;2023-03-19T11:53:18;100381.38;;;15.75;61.98
26657;BME280;14279;50.010;8.260;2023-03-19T11:55:53;100384.56;;;15.93;59.91
26657;BME280;14279;50.010;8.260;2023-03-19T12:15:31;100397.44;;;14.61;65.33
26657;BME280;14279;50.010;8.260;2023-03-19T12:18:22;100396.34;;;14.36;67.55
26657;BME280;14279;50.010;8.260;2023-03-19T12:32:20;100403.81;;;13.38;73.24
26657;BME280;14279;50.010;8.260;2023-03-19T12:34:52;100409.03;;;13.07;72.25
26657;BME280;14279;50.010;8.260;2023-03-19T12:37:26;100404.22;;;13.00;73.46
26657;BME280;14279;50.010;8.260;2023-03-19T12:42:38;100413.00;;;12.99;73.84
26657;BME280;14279;50.010;8.260;2023-03-19T12:45:31;100406.25;;;13.11;73.94
26657;BME280;14279;50.010;8.260;2023-03-19T12:48:06;100403.69;;;13.25;73.62
26657;BME280;14279;50.010;8.260;2023-03-19T12:50:36;100403.81;;;13.38;74.41
26657;BME280;14279;50.010;8.260;2023-03-19T12:53:07;100406.28;;;13.41;75.15
26657;BME280;14279;50.010;8.260;2023-03-19T12:55:46;100404.56;;;13.40;76.38
26657;BME280;14279;50.010;8.260;2023-03-19T12:58:23;100409.03;;;13.07;77.97
26657;BME280;14279;50.010;8.260;2023-03-19T13:01:00;100408.47;;;12.86;79.64
26657;BME280;14279;50.010;8.260;2023-03-19T13:03:43;100400.94;;;12.80;80.29
26657;BME280;14279;50.010;8.260;2023-03-19T13:06:27;100409.03;;;12.91;80.57
26657;BME280;14279;50.010;8.260;2023-03-19T13:09:02;100396.53;;;13.29;80.13
26657;BME280;14279;50.010;8.260;2023-03-19T13:11:51;100395.97;;;13.54;78.28
26657;BME280;14279;50.010;8.260;2023-03-19T13:14:40;100398.53;;;13.70;78.91
26657;BME280;14279;50.010;8.260;2023-03-19T13:20:55;100405.75;;;13.81;78.86
26657;BME280;14279;50.010;8.260;2023-03-19T13:23:29;100410.44;;;13.90;79.42
26657;BME280;14279;50.010;8.260;2023-03-19T13:25:57;100405.00;;;13.79;78.66
26657;BME280;14279;50.010;8.260;2023-03-19T13:28:28;100404.25;;;13.77;79.46
26657;BME280;14279;50.010;8.260;2023-03-19T13:31:25;100406.97;;;13.90;79.09
26657;BME280;14279;50.010;8.260;2023-03-19T13:34:03;100394.28;;;13.83;77.68
26657;BME280;14279;50.010;8.260;2023-03-19T13:36:35;100395.63;;;13.75;78.18
26657;BME280;14279;50.010;8.260;2023-03-19T13:39:02;100394.94;;;13.87;78.40
26657;BME280;14279;50.010;8.260;2023-03-19T13:50:26;100388.66;;;14.48;75.47
26657;BME280;14279;50.010;8.260;2023-03-19T13:56:14;100379.69;;;14.37;71.51
26657;BME280;14279;50.010;8.260;2023-03-19T14:01:52;100376.41;;;14.63;71.70
26657;BME280;14279;50.010;8.260;2023-03-19T14:04:32;100374.25;;;14.69;72.88
26657;BME280;14279;50.010;8.260;2023-03-19T14:12:31;100368.88;;;15.13;70.83
26657;BME280;14279;50.010;8.260;2023-03-19T14:15:12;100362.75;;;14.99;71.65
26657;BME280;14279;50.010;8.260;2023-03-19T14:25:57;100351.84;;;15.46;69.55
26657;BME280;14279;50.010;8.260;2023-03-19T14:31:50;100351.13;;;15.03;68.11
26657;BME280;14279;50.010;8.260;2023-03-19T14:34:39;100360.53;;;14.93;66.25
26657;BME280;14279;50.010;8.260;2023-03-19T14:40:20;100348.50;;;15.03;64.96
26657;BME280;14279;50.010;8.260;2023-03-19T14:43:21;100347.00;;;15.40;64.72